createdAt,value
2023-01-12T00:02:14.657Z,18.48
2023-01-12T00:04:35.339Z,19.27
2023-01-12T00:06:55.236Z,21.30
2023-01-12T00:09:14.953Z,26.75
2023-01-12T00:11:39.530Z,20.27
2023-01-12T00:13:59.358Z,29.02
2023-01-12T00:16:34.459Z,30.00
2023-01-12T00:18:54.284Z,26.08
2023-01-12T00:21:14.920Z,14.45
2023-01-12T00:23:34.728Z,12.25
2023-01-12T00:25:54.921Z,14.43
2023-01-12T00:28:14.957Z,13.93
2023-01-12T00:30:34.495Z,12.95
2023-01-12T00:32:54.213Z,12.07
2023-01-12T00:35:16.619Z,13.15
2023-01-12T00:37:36.708Z,16.10
2023-01-12T00:40:02.642Z,19.45
2023-01-12T00:42:41.295Z,17.85
2023-01-12T00:45:19.586Z,19.10
2023-01-12T00:47:41.873Z,19.63
2023-01-12T00:50:01.858Z,22.85
2023-01-12T00:52:30.415Z,21.98
2023-01-12T00:54:50.942Z,21.77
2023-01-12T00:57:13.378Z,20.80
2023-01-12T00:59:36.310Z,23.60
2023-01-12T01:04:15.758Z,23.83
2023-01-12T01:06:39.209Z,25.48
2023-01-12T01:08:59.014Z,21.98
2023-01-12T01:11:19.453Z,22.13
2023-01-12T01:13:40.773Z,23.70
2023-01-12T01:16:02.624Z,22.25
2023-01-12T01:18:22.803Z,28.30
2023-01-12T01:20:46.754Z,24.13
2023-01-12T01:23:06.548Z,28.50
2023-01-12T01:25:26.795Z,30.75
2023-01-12T01:27:47.034Z,29.77
2023-01-12T01:30:07.397Z,30.13
2023-01-12T01:32:27.465Z,27.45
2023-01-12T01:34:47.602Z,32.85
2023-01-12T01:37:07.350Z,25.30
2023-01-12T01:39:26.896Z,29.30
2023-01-12T01:41:47.494Z,22.58
2023-01-12T01:44:29.375Z,24.33
2023-01-12T01:47:01.087Z,25.17
2023-01-12T01:49:42.429Z,28.77
2023-01-12T01:52:12.246Z,19.05
2023-01-12T01:54:37.043Z,15.88
2023-01-12T01:56:57.386Z,16.73
2023-01-12T01:59:21.846Z,19.25
2023-01-12T02:01:41.823Z,16.35
2023-01-12T02:04:02.599Z,18.15
2023-01-12T02:06:25.585Z,23.58
2023-01-12T02:11:26.287Z,21.40
2023-01-12T02:14:04.836Z,20.77
2023-01-12T02:16:29.924Z,20.15
2023-01-12T02:19:22.011Z,18.90
2023-01-12T02:21:55.870Z,23.70
2023-01-12T02:24:25.044Z,22.25
2023-01-12T02:26:53.811Z,24.08
2023-01-12T02:29:41.464Z,26.60
2023-01-12T02:32:39.133Z,23.70
2023-01-12T02:35:08.188Z,26.80
2023-01-12T02:37:43.241Z,24.23
2023-01-12T02:40:09.029Z,25.45
2023-01-12T02:42:40.617Z,24.35
2023-01-12T02:45:25.558Z,25.45
2023-01-12T02:47:48.388Z,25.95
2023-01-12T02:50:15.644Z,23.02
2023-01-12T02:52:35.594Z,31.13
2023-01-12T02:54:57.779Z,26.52
2023-01-12T02:57:21.174Z,24.85
2023-01-12T03:02:18.475Z,22.88
2023-01-12T03:04:39.631Z,21.77
2023-01-12T03:06:59.540Z,20.63
2023-01-12T03:09:19.862Z,21.30
2023-01-12T03:11:43.461Z,20.83
2023-01-12T03:14:04.633Z,19.88
2023-01-12T03:16:28.618Z,19.10
2023-01-12T03:18:56.571Z,19.23
2023-01-12T03:21:41.681Z,16.55
2023-01-12T03:24:10.424Z,15.18
2023-01-12T03:26:33.820Z,15.82
2023-01-12T03:31:18.545Z,17.15
2023-01-12T03:33:43.278Z,19.98
2023-01-12T03:36:18.779Z,19.35
2023-01-12T03:39:05.951Z,20.75
2023-01-12T03:41:44.561Z,20.90
2023-01-12T03:44:08.223Z,16.80
2023-01-12T03:46:43.801Z,16.08
2023-01-12T03:49:31.508Z,17.88
2023-01-12T03:51:52.619Z,12.35
2023-01-12T03:54:14.428Z,11.30
2023-01-12T03:56:35.978Z,9.35
2023-01-12T03:58:56.570Z,15.27
2023-01-12T04:01:16.607Z,18.85
2023-01-12T04:03:36.533Z,16.08
2023-01-12T04:05:56.762Z,15.93
2023-01-12T04:08:16.847Z,10.50
2023-01-12T04:10:36.736Z,23.05
2023-01-12T04:12:56.551Z,14.93
2023-01-12T04:15:16.214Z,15.82
2023-01-12T04:17:35.905Z,17.30
2023-01-12T04:19:55.682Z,16.20
2023-01-12T04:22:34.413Z,20.15
2023-01-12T04:24:54.638Z,19.13
2023-01-12T04:27:15.932Z,22.42
2023-01-12T04:29:35.917Z,18.27
2023-01-12T04:31:56.094Z,17.35
2023-01-12T04:34:16.498Z,18.92
2023-01-12T04:36:36.147Z,18.35
2023-01-12T04:38:56.445Z,23.77
2023-01-12T04:41:16.782Z,15.30
2023-01-12T04:43:36.627Z,14.80
2023-01-12T04:45:57.033Z,16.63
2023-01-12T04:48:18.732Z,17.63
2023-01-12T04:50:41.843Z,14.43
2023-01-12T04:53:03.606Z,15.32
2023-01-12T04:55:23.916Z,15.57
2023-01-12T04:57:44.101Z,12.30
2023-01-12T05:00:04.953Z,13.15
2023-01-12T05:02:25.026Z,11.45
2023-01-12T05:04:47.114Z,11.95
2023-01-12T05:07:07.059Z,11.75
2023-01-12T05:09:49.710Z,11.00
2023-01-12T05:12:09.703Z,9.48
2023-01-12T05:14:29.869Z,12.98
2023-01-12T05:16:49.975Z,18.05
2023-01-12T05:19:10.195Z,12.95
2023-01-12T05:21:30.189Z,7.55
2023-01-12T05:23:52.110Z,6.25
2023-01-12T05:26:11.867Z,5.53
2023-01-12T05:28:32.838Z,6.38
2023-01-12T05:30:52.640Z,19.75
2023-01-12T05:33:15.879Z,12.85
2023-01-12T05:35:37.973Z,9.32
2023-01-12T05:37:57.990Z,7.57
2023-01-12T05:40:18.324Z,7.32
2023-01-12T05:42:56.888Z,6.63
2023-01-12T05:45:16.596Z,18.10
2023-01-12T05:47:36.850Z,19.08
2023-01-12T05:49:57.059Z,21.13
2023-01-12T05:52:17.109Z,17.90
2023-01-12T05:54:37.157Z,11.75
2023-01-12T05:56:57.205Z,12.75
2023-01-12T05:59:17.353Z,14.60
2023-01-12T06:01:39.762Z,11.18
2023-01-12T06:04:00.993Z,11.57
2023-01-12T06:06:23.059Z,10.60
2023-01-12T06:08:42.790Z,9.43
2023-01-12T06:11:03.786Z,9.52
2023-01-12T06:13:42.231Z,9.38
2023-01-12T06:16:05.031Z,25.80
2023-01-12T06:18:25.024Z,16.38
2023-01-12T06:20:45.154Z,26.08
2023-01-12T06:23:05.436Z,15.25
2023-01-12T06:25:26.039Z,13.88
2023-01-12T06:27:45.892Z,14.57
2023-01-12T06:30:08.082Z,14.00
2023-01-12T06:32:28.282Z,14.27
2023-01-12T06:34:47.915Z,13.75
2023-01-12T06:37:11.386Z,13.20
2023-01-12T06:39:31.438Z,11.98
2023-01-12T06:42:10.146Z,14.20
2023-01-12T06:44:29.913Z,15.50
2023-01-12T06:46:50.228Z,15.07
2023-01-12T06:49:10.136Z,19.30
2023-01-12T06:51:30.507Z,16.42
2023-01-12T06:53:50.707Z,13.13
2023-01-12T06:56:10.915Z,22.08
2023-01-12T06:58:31.211Z,19.70
2023-01-12T07:00:50.943Z,30.27
2023-01-12T07:03:17.363Z,12.70
2023-01-12T07:05:37.358Z,11.63
2023-01-12T07:07:59.615Z,9.75
2023-01-12T07:10:19.611Z,11.93
2023-01-12T07:12:39.455Z,14.48
2023-01-12T07:14:59.622Z,16.23
2023-01-12T07:17:19.680Z,17.15
2023-01-12T07:19:41.577Z,9.80
2023-01-12T07:22:01.784Z,10.90
2023-01-12T07:24:21.872Z,10.57
2023-01-12T07:26:42.231Z,4.68
2023-01-12T07:29:01.956Z,4.93
2023-01-12T07:31:21.936Z,18.23
2023-01-12T07:33:42.189Z,23.65
2023-01-12T07:36:02.156Z,18.58
2023-01-12T07:38:21.957Z,15.35
2023-01-12T07:40:41.679Z,18.48
2023-01-12T07:43:06.580Z,13.93
2023-01-12T07:45:27.936Z,16.25
2023-01-12T07:47:53.108Z,12.85
2023-01-12T07:50:13.175Z,25.13
2023-01-12T07:52:33.174Z,14.98
2023-01-12T07:54:53.022Z,9.40
2023-01-12T07:57:12.746Z,7.53
2023-01-12T07:59:32.438Z,7.75
2023-01-12T08:01:54.028Z,6.63
2023-01-12T08:04:13.845Z,8.38
2023-01-12T08:06:35.006Z,9.00
2023-01-12T08:08:55.162Z,17.08
2023-01-12T08:11:14.952Z,17.20
2023-01-12T08:13:35.219Z,18.48
2023-01-12T08:15:57.189Z,14.65
2023-01-12T08:18:43.413Z,12.73
2023-01-12T08:21:09.506Z,9.88
2023-01-12T08:23:35.316Z,7.63
2023-01-12T08:26:00.760Z,7.60
2023-01-12T08:28:36.574Z,8.15
2023-01-12T08:30:56.771Z,6.07
2023-01-12T08:33:16.910Z,7.35
2023-01-12T08:35:37.433Z,7.30
2023-01-12T08:37:57.323Z,6.50
2023-01-12T08:40:17.679Z,6.10
2023-01-12T08:42:37.616Z,21.85
2023-01-12T08:44:57.268Z,26.42
2023-01-12T08:47:20.849Z,14.40
2023-01-12T08:49:41.441Z,13.27
2023-01-12T08:52:01.685Z,20.40
2023-01-12T08:54:23.511Z,44.78
2023-01-12T08:56:44.355Z,14.07
2023-01-12T08:59:04.435Z,15.05
2023-01-12T09:01:24.313Z,9.30
2023-01-12T09:03:45.163Z,11.30
2023-01-12T09:06:13.645Z,10.77
2023-01-12T09:08:34.281Z,10.63
2023-01-12T09:11:00.975Z,5.75
2023-01-12T09:13:20.696Z,5.13
2023-01-12T09:15:41.174Z,6.82
2023-01-12T09:18:00.982Z,8.00
2023-01-12T09:20:21.696Z,8.70
2023-01-12T09:22:41.565Z,8.15
2023-01-12T09:25:01.199Z,7.30
2023-01-12T09:27:21.043Z,7.47
2023-01-12T09:29:40.906Z,8.07
2023-01-12T09:32:00.882Z,10.65
2023-01-12T09:34:20.871Z,7.57
2023-01-12T09:36:41.024Z,5.70
2023-01-12T09:39:01.469Z,6.03
2023-01-12T09:42:02.050Z,8.70
2023-01-12T09:44:44.295Z,6.45
2023-01-12T09:47:08.453Z,4.10
2023-01-12T09:49:36.066Z,5.57
2023-01-12T09:51:56.284Z,13.52
2023-01-12T09:54:17.180Z,7.53
2023-01-12T09:56:51.090Z,4.35
2023-01-12T09:59:39.216Z,4.07
2023-01-12T10:01:59.510Z,4.90
2023-01-12T10:04:20.071Z,4.22
2023-01-12T10:06:40.365Z,4.13
2023-01-12T10:09:03.242Z,4.07
2023-01-12T10:12:12.481Z,6.10
2023-01-12T10:14:32.482Z,4.10
2023-01-12T10:17:41.980Z,3.90
2023-01-12T10:20:09.385Z,4.57
2023-01-12T10:22:39.191Z,3.92
2023-01-12T10:24:59.270Z,5.05
2023-01-12T10:27:19.322Z,4.85
2023-01-12T10:29:39.019Z,3.53
2023-01-12T10:31:59.236Z,4.40
2023-01-12T10:34:19.522Z,4.10
2023-01-12T10:36:48.925Z,3.75
2023-01-12T10:39:37.998Z,3.90
2023-01-12T10:42:40.092Z,5.53
2023-01-12T10:45:13.006Z,5.40
2023-01-12T10:47:33.863Z,7.75
2023-01-12T10:50:32.365Z,8.70
2023-01-12T10:53:00.476Z,4.20
2023-01-12T10:55:21.735Z,6.88
2023-01-12T10:57:44.031Z,4.30
2023-01-12T11:00:05.117Z,14.00
2023-01-12T11:02:28.333Z,5.18
2023-01-12T11:07:21.561Z,3.42
2023-01-12T11:09:44.745Z,4.20
2023-01-12T11:12:26.307Z,3.72
2023-01-12T11:15:18.313Z,5.38
2023-01-12T11:17:49.769Z,3.38
2023-01-12T11:20:24.409Z,4.13
2023-01-12T11:22:45.675Z,3.83
2023-01-12T11:25:13.979Z,6.68
2023-01-12T11:27:44.839Z,16.30
2023-01-12T11:30:25.404Z,5.68
2023-01-12T11:32:59.747Z,3.58
2023-01-12T11:35:37.563Z,3.35
2023-01-12T11:38:03.179Z,3.90
2023-01-12T11:40:34.349Z,3.65
2023-01-12T11:43:17.661Z,4.82
2023-01-12T11:45:53.059Z,2.88
2023-01-12T11:48:21.781Z,4.93
2023-01-12T11:50:42.871Z,4.28
2023-01-12T11:53:05.214Z,5.25
2023-01-12T11:55:58.019Z,3.85
2023-01-12T11:58:41.703Z,3.10
2023-01-12T12:01:19.058Z,4.38
2023-01-12T12:03:45.679Z,3.95
2023-01-12T12:06:23.665Z,1.98
2023-01-12T12:09:00.566Z,2.03
2023-01-12T12:11:51.993Z,1.55
2023-01-12T12:14:30.332Z,2.00
2023-01-12T12:16:56.684Z,1.70
2023-01-12T12:20:04.359Z,2.25
2023-01-12T12:22:27.269Z,1.90
2023-01-12T12:25:46.788Z,2.15
2023-01-12T12:28:24.600Z,1.50
2023-01-12T12:30:44.632Z,1.70
2023-01-12T12:33:39.153Z,3.25
2023-01-12T12:36:07.798Z,1.92
2023-01-12T12:38:42.504Z,1.38
2023-01-12T12:41:31.084Z,1.88
2023-01-12T12:44:44.076Z,1.70
2023-01-12T12:47:21.100Z,2.83
2023-01-12T12:49:41.535Z,2.28
2023-01-12T12:52:01.625Z,2.28
2023-01-12T12:54:23.122Z,2.45
2023-01-12T12:56:43.737Z,1.33
2023-01-12T12:59:04.316Z,2.72
2023-01-12T13:01:24.532Z,1.65
2023-01-12T13:03:49.624Z,1.27
2023-01-12T13:06:15.735Z,1.40
2023-01-12T13:08:36.161Z,1.55
2023-01-12T13:10:58.163Z,1.35
2023-01-12T13:13:33.180Z,2.83
2023-01-12T13:16:17.345Z,2.08
2023-01-12T13:19:01.706Z,1.45
2023-01-12T13:21:30.469Z,1.20
2023-01-12T13:23:51.338Z,1.10
2023-01-12T13:26:36.977Z,1.10
2023-01-12T13:29:28.307Z,1.42
2023-01-12T13:31:49.861Z,3.03
2023-01-12T13:34:51.511Z,1.40
2023-01-12T13:37:11.279Z,1.33
2023-01-12T13:39:35.161Z,3.25
2023-01-12T13:42:14.407Z,1.13
2023-01-12T13:44:36.945Z,1.48
2023-01-12T13:49:46.678Z,2.55
2023-01-12T13:52:19.014Z,1.33
2023-01-12T13:54:48.738Z,2.20
2023-01-12T13:57:21.464Z,1.40
2023-01-12T14:00:08.710Z,1.13
2023-01-12T14:02:31.892Z,2.60
2023-01-12T14:07:42.084Z,1.10
2023-01-12T14:10:32.380Z,1.73
2023-01-12T14:13:10.710Z,3.42
2023-01-12T14:15:56.848Z,2.60
2023-01-12T14:18:19.276Z,2.30
2023-01-12T14:20:54.143Z,2.78
2023-01-12T14:23:18.482Z,1.85
2023-01-12T14:25:38.248Z,1.20
2023-01-12T14:27:58.406Z,1.30
2023-01-12T14:30:19.380Z,1.65
2023-01-12T14:32:45.626Z,1.50
2023-01-12T14:35:05.380Z,1.58
2023-01-12T14:37:33.816Z,1.40
2023-01-12T14:39:54.746Z,1.60
2023-01-12T14:42:37.654Z,1.42
2023-01-12T14:45:15.953Z,19.98
2023-01-12T14:47:36.174Z,1.85
2023-01-12T14:50:06.938Z,1.50
2023-01-12T14:52:32.213Z,1.58
2023-01-12T14:54:52.064Z,2.42
2023-01-12T14:57:25.858Z,1.58
2023-01-12T14:59:47.771Z,2.72
2023-01-12T15:02:14.161Z,1.83
2023-01-12T15:04:34.244Z,2.05
2023-01-12T15:07:05.221Z,1.30
2023-01-12T15:09:27.373Z,2.00
2023-01-12T15:11:47.376Z,1.67
2023-01-12T15:14:21.326Z,2.67
2023-01-12T15:16:59.927Z,3.35
2023-01-12T15:19:38.603Z,1.67
2023-01-12T15:22:17.694Z,2.53
2023-01-12T15:24:58.287Z,2.55
2023-01-12T15:27:21.027Z,2.70
2023-01-12T15:29:40.964Z,13.25
2023-01-12T15:32:02.103Z,6.43
2023-01-12T15:34:21.973Z,3.88
2023-01-12T15:36:41.551Z,7.72
2023-01-12T15:39:01.202Z,10.77
2023-01-12T15:41:45.212Z,9.68
2023-01-12T15:44:05.363Z,19.88
2023-01-12T15:46:25.784Z,11.60
2023-01-12T15:48:46.106Z,8.45
2023-01-12T15:51:08.875Z,4.63
2023-01-12T15:53:28.485Z,8.38
2023-01-12T15:55:48.599Z,15.32
2023-01-12T15:58:08.769Z,11.45
2023-01-12T16:00:29.318Z,8.13
2023-01-12T16:02:52.700Z,8.77
2023-01-12T16:05:13.176Z,9.85
2023-01-12T16:07:32.988Z,8.52
2023-01-12T16:09:54.522Z,14.98
2023-01-12T16:12:15.097Z,6.70
2023-01-12T16:14:34.967Z,4.65
2023-01-12T16:16:56.058Z,4.63
2023-01-12T16:19:20.950Z,3.50
2023-01-12T16:21:41.163Z,3.63
2023-01-12T16:24:01.173Z,3.45
2023-01-12T16:26:21.161Z,4.43
2023-01-12T16:28:41.276Z,7.25
2023-01-12T16:31:09.654Z,8.68
2023-01-12T16:33:29.728Z,8.48
2023-01-12T16:35:49.575Z,4.00
2023-01-12T16:38:12.099Z,3.38
2023-01-12T16:40:31.789Z,4.03
2023-01-12T16:42:51.616Z,11.23
2023-01-12T16:45:11.332Z,29.90
2023-01-12T16:47:31.552Z,10.82
2023-01-12T16:49:51.782Z,12.57
2023-01-12T16:52:14.497Z,6.88
2023-01-12T16:54:40.931Z,4.70
2023-01-12T16:57:00.562Z,6.63
2023-01-12T16:59:21.165Z,9.35
2023-01-12T17:01:40.938Z,13.50
2023-01-12T17:04:01.062Z,14.27
2023-01-12T17:06:21.773Z,14.55
2023-01-12T17:08:41.879Z,19.88
2023-01-12T17:11:13.621Z,12.70
2023-01-12T17:13:33.759Z,8.63
2023-01-12T17:15:53.726Z,7.07
2023-01-12T17:18:13.783Z,8.25
2023-01-12T17:20:34.283Z,13.65
2023-01-12T17:22:54.701Z,7.55
2023-01-12T17:25:15.561Z,7.40
2023-01-12T17:27:35.459Z,5.65
2023-01-12T17:29:55.610Z,6.03
2023-01-12T17:32:16.254Z,8.63
2023-01-12T17:34:38.256Z,7.18
2023-01-12T17:37:02.308Z,9.13
2023-01-12T17:39:22.216Z,12.55
2023-01-12T17:42:00.963Z,45.08
2023-01-12T17:44:21.121Z,55.55
2023-01-12T17:46:42.740Z,41.30
2023-01-12T17:49:06.211Z,28.13
2023-01-12T17:51:26.542Z,34.45
2023-01-12T17:53:46.419Z,73.93
2023-01-12T17:56:06.927Z,11.20
2023-01-12T17:58:26.646Z,11.07
2023-01-12T18:00:46.460Z,16.48
2023-01-12T18:03:06.586Z,10.80
2023-01-12T18:05:27.181Z,10.35
2023-01-12T18:07:47.012Z,16.17
2023-01-12T18:10:09.779Z,23.67
2023-01-12T18:12:29.487Z,35.53
2023-01-12T18:14:49.071Z,22.83
2023-01-12T18:17:10.390Z,12.63
2023-01-12T18:19:30.113Z,11.00
2023-01-12T18:21:50.540Z,13.50
2023-01-12T18:24:10.589Z,18.40
2023-01-12T18:26:34.946Z,32.28
2023-01-12T18:28:57.355Z,27.10
2023-01-12T18:31:20.778Z,39.10
2023-01-12T18:33:40.701Z,42.97
2023-01-12T18:36:00.754Z,74.45
2023-01-12T18:38:20.603Z,39.65
2023-01-12T18:40:40.121Z,20.23
2023-01-12T18:43:00.154Z,26.98
2023-01-12T18:45:23.318Z,32.22
2023-01-12T18:50:39.895Z,39.35
2023-01-12T18:53:18.917Z,43.38
2023-01-12T18:55:40.680Z,17.25
2023-01-12T18:58:00.858Z,24.95
2023-01-12T19:00:21.765Z,25.17
2023-01-12T19:02:41.708Z,30.48
2023-01-12T19:05:21.496Z,35.75
2023-01-12T19:07:59.289Z,27.67
2023-01-12T19:10:19.582Z,33.35
2023-01-12T19:12:39.674Z,30.70
2023-01-12T19:15:18.465Z,24.83
2023-01-12T19:17:41.729Z,41.60
2023-01-12T19:20:05.680Z,52.10
2023-01-12T19:22:45.272Z,23.05
2023-01-12T19:25:24.014Z,12.68
2023-01-12T19:28:02.751Z,15.70
2023-01-12T19:30:22.946Z,12.40
2023-01-12T19:32:43.077Z,13.52
2023-01-12T19:35:10.848Z,18.48
2023-01-12T19:37:31.422Z,16.67
2023-01-12T19:40:02.042Z,20.90
2023-01-12T19:42:40.446Z,38.28
2023-01-12T19:45:00.191Z,54.45
2023-01-12T19:47:19.650Z,42.33
2023-01-12T19:49:39.700Z,70.55
2023-01-12T19:51:59.874Z,43.75
2023-01-12T19:54:20.484Z,52.95
2023-01-12T19:56:40.270Z,73.40
2023-01-12T19:59:00.301Z,84.35
2023-01-12T20:01:23.634Z,54.30
2023-01-12T20:06:07.221Z,24.92
2023-01-12T20:08:26.997Z,14.93
2023-01-12T20:10:56.903Z,8.23
2023-01-12T20:13:17.197Z,55.05
2023-01-12T20:15:38.213Z,44.38
2023-01-12T20:17:59.409Z,33.85
2023-01-12T20:20:19.338Z,28.85
2023-01-12T20:22:39.373Z,27.13
2023-01-12T20:25:02.014Z,24.90
2023-01-12T20:27:21.796Z,24.83
2023-01-12T20:29:42.240Z,21.48
2023-01-12T20:32:02.284Z,40.00
2023-01-12T20:34:22.301Z,32.53
2023-01-12T20:36:43.446Z,31.38
2023-01-12T20:39:03.564Z,24.40
2023-01-12T20:41:23.719Z,32.42
2023-01-12T20:43:44.428Z,37.60
2023-01-12T20:46:12.344Z,49.50
2023-01-12T20:48:31.945Z,84.63
2023-01-12T20:50:52.244Z,70.05
2023-01-12T20:53:13.254Z,46.03
2023-01-12T20:55:33.002Z,41.78
2023-01-12T20:57:52.634Z,41.30
2023-01-12T21:00:12.977Z,41.42
2023-01-12T21:02:32.966Z,27.20
2023-01-12T21:04:52.946Z,29.27
2023-01-12T21:07:12.834Z,26.67
2023-01-12T21:09:32.785Z,27.83
2023-01-12T21:11:52.597Z,26.60
2023-01-12T21:14:13.361Z,18.50
2023-01-12T21:16:33.890Z,16.77
2023-01-12T21:18:53.858Z,27.13
2023-01-12T21:21:14.373Z,24.92
2023-01-12T21:23:34.638Z,60.88
2023-01-12T21:25:54.834Z,96.75
2023-01-12T21:28:15.373Z,63.25
2023-01-12T21:30:36.787Z,62.28
2023-01-12T21:32:56.552Z,68.05
2023-01-12T21:35:17.316Z,57.40
2023-01-12T21:37:37.650Z,61.38
2023-01-12T21:39:57.347Z,70.18
2023-01-12T21:42:36.144Z,63.03
2023-01-12T21:44:56.239Z,75.05
2023-01-12T21:47:16.501Z,34.83
2023-01-12T21:49:36.345Z,31.25
2023-01-12T21:51:56.436Z,64.47
2023-01-12T21:54:16.223Z,59.70
2023-01-12T21:56:36.633Z,138.65
2023-01-12T21:58:57.359Z,36.90
2023-01-12T22:01:17.362Z,49.80
2023-01-12T22:03:37.948Z,29.77
2023-01-12T22:06:05.127Z,25.73
2023-01-12T22:08:24.994Z,36.97
2023-01-12T22:10:46.125Z,32.42
2023-01-12T22:13:09.133Z,26.10
2023-01-12T22:17:50.651Z,28.20
2023-01-12T22:20:11.978Z,21.50
2023-01-12T22:22:31.987Z,18.50
2023-01-12T22:24:52.016Z,20.33
2023-01-12T22:27:11.687Z,18.75
2023-01-12T22:29:31.977Z,17.80
2023-01-12T22:31:51.760Z,14.88
2023-01-12T22:34:12.224Z,12.93
2023-01-12T22:36:36.348Z,19.00
2023-01-12T22:38:56.136Z,28.38
2023-01-12T22:41:18.637Z,33.20
2023-01-12T22:43:41.354Z,45.40
2023-01-12T22:46:01.311Z,41.08
2023-01-12T22:48:21.429Z,57.60
2023-01-12T22:50:41.064Z,61.53
2023-01-12T22:53:00.609Z,69.45
2023-01-12T22:55:21.843Z,70.70
2023-01-12T22:57:41.860Z,113.38
2023-01-12T23:00:01.907Z,83.28
2023-01-12T23:02:40.711Z,97.07
2023-01-12T23:05:01.273Z,68.03
2023-01-12T23:07:21.430Z,67.47
2023-01-12T23:09:41.147Z,60.45
2023-01-12T23:12:00.743Z,41.60
2023-01-12T23:14:20.841Z,47.15
2023-01-12T23:16:40.838Z,63.15
2023-01-12T23:19:00.884Z,45.60
2023-01-12T23:21:25.818Z,33.75
2023-01-12T23:23:51.158Z,26.05
2023-01-12T23:26:14.115Z,28.90
2023-01-12T23:28:40.396Z,22.52
2023-01-12T23:31:08.403Z,25.55
2023-01-12T23:33:28.303Z,26.95
2023-01-12T23:35:48.169Z,27.85
2023-01-12T23:38:14.604Z,35.65
2023-01-12T23:40:34.496Z,25.17
2023-01-12T23:42:54.580Z,26.65
2023-01-12T23:45:14.778Z,24.83
2023-01-12T23:47:34.699Z,23.08
2023-01-12T23:49:54.488Z,21.23
2023-01-12T23:52:16.439Z,20.40
2023-01-12T23:54:37.924Z,16.10
2023-01-12T23:56:57.757Z,15.40
2023-01-12T23:59:18.144Z,13.75
